Time;durP1;ratioP1;P1;durP2;ratioP2;P2;SDS_P1;SDS_P2;PMS_P1;PMS_P2;Temp;Humidity;BMP_temperature;BMP_pressure;BME280_temperature;BME280_humidity;BME280_pressure;Samples;Min_cycle;Max_cycle;Signal;HPM_P1;HPM_P2
2022/08/23 00:01:59;;;;;;;53.83;51.03;;;15.90;99.90;;;;;;5014542;28;20562;-79
2022/08/23 00:04:29;;;;;;;41.50;39.37;;;15.90;99.90;;;;;;5015636;28;20223;-80
2022/08/23 00:06:56;;;;;;;40.20;38.10;;;15.80;99.90;;;;;;5013215;28;20664;-78
2022/08/23 00:09:24;;;;;;;30.43;28.87;;;15.80;99.90;;;;;;5014727;28;20186;-79
2022/08/23 00:12:10;;;;;;;25.23;23.87;;;15.70;99.90;;;;;;5015310;28;20681;-79
2022/08/23 00:14:40;;;;;;;18.47;17.27;;;15.60;99.90;;;;;;5026931;28;20599;-78
2022/08/23 00:17:08;;;;;;;16.23;15.30;;;15.70;99.90;;;;;;5015395;28;20184;-79
2022/08/23 00:19:34;;;;;;;20.23;18.97;;;15.70;99.90;;;;;;5015478;28;20184;-80
2022/08/23 00:22:00;;;;;;;48.73;46.03;;;15.70;99.90;;;;;;5015181;28;20212;-79
2022/08/23 00:24:26;;;;;;;105.83;100.17;;;15.60;99.90;;;;;;5031761;28;20308;-78
2022/08/23 00:26:57;;;;;;;120.43;114.23;;;15.60;99.90;;;;;;5002497;28;20560;-79
2022/08/23 00:29:30;;;;;;;161.20;152.57;;;15.60;99.90;;;;;;4995333;28;20180;-79
2022/08/23 00:31:57;;;;;;;164.77;156.37;;;15.50;99.90;;;;;;4995405;28;20347;-80
2022/08/23 00:34:23;;;;;;;189.43;179.70;;;15.50;99.90;;;;;;4997153;28;20219;-79
2022/08/23 00:36:50;;;;;;;172.53;163.37;;;15.40;99.90;;;;;;5012380;28;20232;-78
2022/08/23 00:39:17;;;;;;;152.53;144.63;;;15.40;99.90;;;;;;5022717;28;20211;-80
2022/08/23 00:41:45;;;;;;;161.07;152.90;;;15.40;99.90;;;;;;5016843;28;20183;-79
2022/08/23 00:50:26;;;;;;;131.17;124.40;;;15.40;99.90;;;;;;4995208;28;20188;-80
2022/08/23 00:53:05;;;;;;;118.80;112.43;;;15.30;99.90;;;;;;4999145;28;20184;-80
2022/08/23 00:55:32;;;;;;;95.87;90.97;;;15.10;99.90;;;;;;5010071;28;20216;-80
2022/08/23 00:57:59;;;;;;;77.27;73.23;;;14.80;99.90;;;;;;5000426;28;20220;-78
2022/08/23 01:00:26;;;;;;;63.50;60.17;;;14.70;99.90;;;;;;5013078;28;20676;-80
2022/08/23 01:02:53;;;;;;;78.67;74.40;;;14.70;99.90;;;;;;5012481;28;20657;-78
2022/08/23 01:05:23;;;;;;;114.37;108.37;;;14.70;99.90;;;;;;5011578;28;20219;-82
2022/08/23 01:07:56;;;;;;;89.97;85.23;;;14.90;99.90;;;;;;4993680;28;20215;-78
2022/08/23 01:10:38;;;;;;;72.47;68.40;;;14.90;99.90;;;;;;4994506;28;20230;-79
2022/08/23 01:13:15;;;;;;;46.57;43.93;;;14.90;99.90;;;;;;5003214;28;20176;-77
2022/08/23 01:15:57;;;;;;;62.43;59.23;;;15.00;99.90;;;;;;5027225;28;20210;-78
2022/08/23 01:18:25;;;;;;;87.03;82.27;;;14.90;99.90;;;;;;5013656;28;20210;-79
2022/08/23 01:21:23;;;;;;;62.40;59.20;;;14.90;99.90;;;;;;5013626;28;20207;-79
2022/08/23 01:23:57;;;;;;;56.57;53.50;;;14.90;99.90;;;;;;4980490;28;20212;-79
2022/08/23 01:26:25;;;;;;;64.93;61.70;;;14.90;99.90;;;;;;4994755;28;20192;-80
2022/08/23 01:28:53;;;;;;;66.27;62.93;;;14.90;99.90;;;;;;4992503;28;20184;-79
2022/08/23 01:31:22;;;;;;;93.70;88.90;;;14.80;99.90;;;;;;4994689;28;20208;-79
2022/08/23 01:33:57;;;;;;;94.87;89.97;;;14.80;99.90;;;;;;5003787;28;20243;-79
2022/08/23 01:36:24;;;;;;;125.60;119.00;;;14.80;99.90;;;;;;5012851;28;20175;-79
2022/08/23 01:38:49;;;;;;;121.60;114.90;;;14.70;99.90;;;;;;5012950;28;20282;-79
2022/08/23 01:41:16;;;;;;;144.43;136.67;;;14.70;99.90;;;;;;5012873;28;20180;-79
2022/08/23 01:43:42;;;;;;;148.10;140.50;;;14.70;99.90;;;;;;5007099;28;20196;-79
2022/08/23 01:46:16;;;;;;;154.97;147.00;;;14.60;99.90;;;;;;4994057;28;20216;-79
2022/08/23 01:48:44;;;;;;;169.83;161.07;;;14.50;99.90;;;;;;4992035;28;20214;-80
2022/08/23 01:51:11;;;;;;;169.00;160.17;;;14.50;99.90;;;;;;4993743;28;20214;-78
2022/08/23 01:53:37;;;;;;;161.67;153.27;;;14.50;99.90;;;;;;5002211;28;20230;-79
2022/08/23 01:56:04;;;;;;;169.87;161.13;;;14.40;99.90;;;;;;5031544;28;20179;-79
2022/08/23 01:58:32;;;;;;;150.57;143.00;;;14.40;99.90;;;;;;5046662;28;20196;-80
2022/08/23 02:00:58;;;;;;;146.67;139.23;;;14.40;99.90;;;;;;5033110;28;20218;-79
2022/08/23 02:03:24;;;;;;;158.87;150.70;;;14.40;99.90;;;;;;5011425;28;20649;-81
2022/08/23 02:05:50;;;;;;;208.33;197.33;;;14.40;99.90;;;;;;4995041;28;20270;-80
2022/08/23 02:11:11;;;;;;;212.63;201.37;;;14.40;99.90;;;;;;4995073;28;20562;-81
2022/08/23 02:13:37;;;;;;;214.17;202.57;;;14.40;99.90;;;;;;5002450;28;20199;-80
2022/08/23 02:16:03;;;;;;;212.63;201.77;;;14.30;99.90;;;;;;5013258;28;20279;-80
2022/08/23 02:18:30;;;;;;;206.57;196.10;;;14.30;99.90;;;;;;5011493;28;20191;-81
2022/08/23 02:20:57;;;;;;;144.50;137.33;;;14.20;99.90;;;;;;5013729;28;20186;-80
2022/08/23 02:23:23;;;;;;;127.17;120.70;;;14.20;99.90;;;;;;5009396;28;20248;-81
2022/08/23 02:25:53;;;;;;;71.37;67.77;;;14.10;99.90;;;;;;4992628;28;20204;-79
2022/08/23 02:28:20;;;;;;;39.57;37.40;;;14.10;99.90;;;;;;4991239;28;20180;-79
2022/08/23 02:30:46;;;;;;;36.90;34.87;;;14.00;99.90;;;;;;4994020;28;20707;-81
2022/08/23 02:33:13;;;;;;;35.53;33.73;;;14.00;99.90;;;;;;4992252;28;20186;-80
2022/08/23 02:35:40;;;;;;;28.73;27.23;;;14.00;99.90;;;;;;4993610;28;20223;-80
2022/08/23 02:38:08;;;;;;;33.37;31.60;;;14.10;99.90;;;;;;4991467;28;20195;-80
2022/08/23 02:40:36;;;;;;;32.80;30.77;;;14.00;99.90;;;;;;4991985;28;20212;-80
2022/08/23 02:43:03;;;;;;;39.43;37.43;;;14.00;99.90;;;;;;4993295;28;20268;-79
2022/08/23 02:45:28;;;;;;;37.90;35.97;;;14.00;99.90;;;;;;4996287;28;20199;-80
2022/08/23 02:47:55;;;;;;;39.50;37.03;;;13.90;99.90;;;;;;5010455;28;20318;-80
2022/08/23 02:50:21;;;;;;;55.63;52.70;;;13.90;99.90;;;;;;5012772;28;20183;-81
2022/08/23 02:52:47;;;;;;;70.00;66.40;;;13.90;99.90;;;;;;5027872;28;20518;-80
2022/08/23 02:55:13;;;;;;;95.60;90.60;;;13.80;99.90;;;;;;5011215;28;20199;-79
2022/08/23 02:57:39;;;;;;;92.17;87.47;;;13.80;99.90;;;;;;5012916;28;20254;-79
2022/08/23 03:00:08;;;;;;;91.60;86.80;;;13.70;99.90;;;;;;5014185;28;20230;-81
2022/08/23 03:02:35;;;;;;;117.73;111.47;;;13.70;99.90;;;;;;5012641;28;20254;-80
2022/08/23 03:05:03;;;;;;;150.07;141.83;;;13.70;99.90;;;;;;5011734;28;20614;-80
2022/08/23 03:07:29;;;;;;;151.17;143.20;;;13.70;99.90;;;;;;5011465;28;20183;-79
2022/08/23 03:09:56;;;;;;;149.93;141.53;;;13.60;99.90;;;;;;5019890;28;20176;-81
2022/08/23 03:12:22;;;;;;;126.73;120.23;;;13.60;99.90;;;;;;5017044;28;20252;-80
2022/08/23 03:14:50;;;;;;;155.00;146.67;;;13.60;99.90;;;;;;5015614;28;20208;-78
2022/08/23 03:17:17;;;;;;;143.87;136.30;;;13.50;99.90;;;;;;5012710;28;20180;-78
2022/08/23 03:19:43;;;;;;;82.13;77.83;;;13.50;99.90;;;;;;5015956;28;20656;-78
2022/08/23 03:22:09;;;;;;;47.67;45.27;;;13.40;99.90;;;;;;5016116;28;20268;-77
2022/08/23 03:24:36;;;;;;;46.33;43.80;;;13.40;99.90;;;;;;5014864;28;20218;-78
2022/08/23 03:27:03;;;;;;;42.83;40.33;;;13.40;99.90;;;;;;5014501;28;20230;-79
2022/08/23 03:29:30;;;;;;;30.10;28.57;;;13.30;99.90;;;;;;5031614;28;20234;-79
2022/08/23 03:31:57;;;;;;;28.57;27.00;;;13.30;99.90;;;;;;5003268;28;20230;-80
2022/08/23 03:34:22;;;;;;;22.10;20.40;;;13.20;99.90;;;;;;4998254;28;20220;-79
2022/08/23 03:36:49;;;;;;;17.33;16.33;;;13.10;99.90;;;;;;5002205;28;20180;-83
2022/08/23 03:39:15;;;;;;;23.13;21.83;;;13.10;99.90;;;;;;5003856;28;20230;-83
2022/08/23 03:41:41;;;;;;;34.07;32.03;;;13.10;99.90;;;;;;5002465;28;20188;-82
2022/08/23 03:44:06;;;;;;;49.47;46.87;;;13.10;99.90;;;;;;4999528;28;20295;-83
2022/08/23 03:46:32;;;;;;;72.73;68.90;;;13.10;99.90;;;;;;5011909;28;20180;-82
2022/08/23 03:49:01;;;;;;;62.50;59.23;;;13.00;99.90;;;;;;5017834;28;20191;-83
2022/08/23 03:51:29;;;;;;;45.77;43.23;;;13.00;99.90;;;;;;5016802;28;20187;-83
2022/08/23 03:53:55;;;;;;;42.43;40.10;;;13.00;99.90;;;;;;5018329;28;20195;-81
2022/08/23 03:56:27;;;;;;;65.97;62.43;;;12.90;99.90;;;;;;5017212;28;20187;-82
2022/08/23 03:58:55;;;;;;;49.77;47.00;;;12.90;99.90;;;;;;5017003;28;20255;-82
2022/08/23 04:01:21;;;;;;;27.70;26.13;;;12.90;99.90;;;;;;5015351;28;20207;-80
2022/08/23 04:03:47;;;;;;;65.10;61.73;;;12.90;99.90;;;;;;5021451;28;20203;-84
2022/08/23 04:06:15;;;;;;;72.00;68.37;;;12.90;99.90;;;;;;5027826;28;20235;-78
2022/08/23 04:08:41;;;;;;;67.80;64.07;;;12.90;99.90;;;;;;5020654;28;20290;-79
2022/08/23 04:11:08;;;;;;;69.57;65.67;;;12.90;99.90;;;;;;5037066;28;20187;-80
2022/08/23 04:13:35;;;;;;;66.63;62.83;;;12.90;99.90;;;;;;5018848;28;20207;-81
2022/08/23 04:16:02;;;;;;;69.40;65.27;;;12.80;99.90;;;;;;5003103;28;20184;-81
2022/08/23 04:18:30;;;;;;;63.27;59.97;;;12.80;99.90;;;;;;5003470;28;20199;-81
2022/08/23 04:20:58;;;;;;;54.20;51.13;;;12.80;99.90;;;;;;5004362;28;20223;-80
2022/08/23 04:23:27;;;;;;;59.80;56.73;;;12.70;99.90;;;;;;4998174;28;20180;-79
2022/08/23 04:25:54;;;;;;;82.90;78.60;;;12.60;99.90;;;;;;4995909;28;20207;-81
2022/08/23 04:28:21;;;;;;;51.60;48.77;;;12.60;99.90;;;;;;5019659;28;20264;-79
2022/08/23 04:30:48;;;;;;;48.47;45.77;;;12.60;99.90;;;;;;5037736;28;20246;-79
2022/08/23 04:33:15;;;;;;;41.67;39.43;;;12.50;99.90;;;;;;5034196;28;20229;-80
2022/08/23 04:35:40;;;;;;;32.30;30.30;;;12.50;99.90;;;;;;5032319;28;20274;-70
2022/08/23 04:38:06;;;;;;;27.90;26.33;;;12.60;99.90;;;;;;5031267;28;20207;-69
2022/08/23 04:43:17;;;;;;;26.53;24.93;;;12.60;99.90;;;;;;5018310;28;20184;-69
2022/08/23 04:45:43;;;;;;;20.50;19.33;;;12.60;99.90;;;;;;4992726;28;20300;-69
2022/08/23 04:48:10;;;;;;;17.00;15.87;;;12.60;99.90;;;;;;4992084;28;20183;-71
2022/08/23 04:50:36;;;;;;;22.37;20.97;;;12.80;99.90;;;;;;4992432;28;20594;-69
2022/08/23 04:53:02;;;;;;;33.90;31.77;;;12.80;99.90;;;;;;4992477;28;20180;-69
2022/08/23 04:55:28;;;;;;;32.73;30.77;;;12.90;99.90;;;;;;4992733;28;20732;-69
2022/08/23 04:57:55;;;;;;;19.47;17.83;;;13.00;99.90;;;;;;4990836;28;20180;-70
2022/08/23 05:00:21;;;;;;;27.90;26.37;;;13.00;99.90;;;;;;4992456;28;20191;-71
2022/08/23 05:02:47;;;;;;;50.43;47.83;;;13.10;99.90;;;;;;4992363;28;20279;-70
2022/08/23 05:05:14;;;;;;;36.27;33.90;;;13.20;99.90;;;;;;4992244;28;20258;-69
2022/08/23 05:07:40;;;;;;;23.87;22.10;;;13.30;99.90;;;;;;4991841;28;20685;-70
2022/08/23 05:10:11;;;;;;;23.23;21.77;;;13.40;99.90;;;;;;4992421;28;20172;-69
2022/08/23 05:12:38;;;;;;;30.10;28.40;;;13.50;99.90;;;;;;5003716;28;20191;-70
2022/08/23 05:15:04;;;;;;;9.33;8.43;;;13.70;99.90;;;;;;5026568;28;20683;-71
2022/08/23 05:17:30;;;;;;;9.23;8.63;;;13.90;99.90;;;;;;5010962;28;20217;-71
2022/08/23 05:19:56;;;;;;;8.27;7.57;;;14.30;99.90;;;;;;5009651;28;20180;-70
2022/08/23 05:22:22;;;;;;;12.43;11.43;;;14.70;99.90;;;;;;4999032;28;20187;-70
2022/08/23 05:24:48;;;;;;;54.57;51.57;;;15.10;99.90;;;;;;5011559;28;20754;-70
2022/08/23 05:27:14;;;;;;;24.87;23.30;;;15.60;99.90;;;;;;5025355;28;20176;-70
2022/08/23 05:29:40;;;;;;;11.20;10.37;;;15.90;99.90;;;;;;5011439;28;20234;-70
2022/08/23 05:32:06;;;;;;;23.53;22.33;;;16.20;99.90;;;;;;5011323;28;20180;-71
2022/08/23 05:34:32;;;;;;;26.53;24.87;;;16.40;99.90;;;;;;5026793;28;20294;-70
2022/08/23 05:36:58;;;;;;;35.87;33.93;;;16.60;99.90;;;;;;5009445;28;20306;-71
2022/08/23 05:39:24;;;;;;;46.57;44.07;;;16.70;99.90;;;;;;4992139;28;20184;-71
2022/08/23 05:41:50;;;;;;;16.67;15.03;;;16.90;99.90;;;;;;4992140;28;20195;-71
2022/08/23 05:44:16;;;;;;;10.13;9.43;;;17.20;99.90;;;;;;4991842;28;20200;-71
2022/08/23 05:46:42;;;;;;;10.13;9.20;;;17.40;99.90;;;;;;4991508;28;20187;-74
2022/08/23 05:49:08;;;;;;;13.33;12.33;;;17.70;99.90;;;;;;4991504;28;20547;-71
2022/08/23 05:51:34;;;;;;;10.03;9.33;;;17.90;99.90;;;;;;4994825;28;20207;-70
2022/08/23 05:54:06;;;;;;;14.90;13.73;;;18.10;99.90;;;;;;4996266;28;20192;-71
2022/08/23 05:56:37;;;;;;;65.27;61.50;;;18.50;99.90;;;;;;4992114;28;20192;-70
2022/08/23 05:59:06;;;;;;;135.37;128.60;;;18.70;99.90;;;;;;4991111;28;20683;-70
2022/08/23 06:01:34;;;;;;;59.83;56.58;;;19.10;99.90;;;;;;4990049;28;20228;-71
2022/08/23 06:04:01;;;;;;;21.15;19.85;;;19.40;99.90;;;;;;5000861;28;20215;-71
2022/08/23 06:06:28;;;;;;;19.90;18.77;;;19.70;99.90;;;;;;5004593;28;20553;-71
2022/08/23 06:08:54;;;;;;;7.97;7.55;;;20.30;99.90;;;;;;5000309;28;20242;-71
2022/08/23 06:11:26;;;;;;;6.85;6.35;;;20.60;99.90;;;;;;5009274;28;20656;-71
2022/08/23 06:13:55;;;;;;;6.47;5.93;;;20.80;99.90;;;;;;5010508;28;20199;-70
2022/08/23 06:16:28;;;;;;;9.18;8.55;;;21.10;99.90;;;;;;5010951;28;20186;-71
2022/08/23 06:18:55;;;;;;;35.35;33.50;;;21.40;99.90;;;;;;5009890;28;20194;-71
2022/08/23 06:21:22;;;;;;;48.22;45.67;;;21.70;99.90;;;;;;4996022;28;20192;-70
2022/08/23 06:23:48;;;;;;;42.67;40.42;;;21.80;99.90;;;;;;4991540;28;20705;-71
2022/08/23 06:26:18;;;;;;;23.08;21.67;;;22.10;99.90;;;;;;4992536;28;20212;-71
2022/08/23 06:28:48;;;;;;;9.65;8.95;;;22.10;99.90;;;;;;4990382;28;20173;-71
2022/08/23 06:31:15;;;;;;;6.45;6.03;;;22.20;99.90;;;;;;4991171;28;20180;-72
2022/08/23 06:33:42;;;;;;;5.55;5.03;;;22.20;99.90;;;;;;4990779;28;20223;-71
2022/08/23 06:36:12;;;;;;;5.78;5.25;;;22.50;99.90;;;;;;5005562;28;20610;-71
2022/08/23 06:38:44;;;;;;;6.88;6.38;;;22.90;99.90;;;;;;5003369;28;20223;-72
2022/08/23 06:41:11;;;;;;;5.82;5.43;;;23.10;99.90;;;;;;4990445;28;20756;-71
2022/08/23 06:43:38;;;;;;;7.45;6.85;;;23.20;99.90;;;;;;4993224;28;20688;-71
2022/08/23 06:46:08;;;;;;;7.57;7.18;;;23.30;99.90;;;;;;4995351;28;20220;-71
2022/08/23 06:48:34;;;;;;;7.72;7.13;;;23.80;99.90;;;;;;4995284;28;20188;-72
2022/08/23 06:51:01;;;;;;;7.15;6.65;;;24.00;99.90;;;;;;5015369;28;20190;-71
2022/08/23 06:53:27;;;;;;;9.27;8.40;;;23.90;99.90;;;;;;4999086;28;20215;-76
2022/08/23 06:55:53;;;;;;;6.60;6.00;;;24.20;99.90;;;;;;4994918;28;20207;-75
2022/08/23 06:58:21;;;;;;;6.57;6.28;;;24.50;99.90;;;;;;4992741;28;20184;-75
2022/08/23 07:00:47;;;;;;;6.82;6.32;;;24.70;99.90;;;;;;5005588;28;20192;-75
2022/08/23 07:03:13;;;;;;;8.60;8.00;;;24.90;99.60;;;;;;5010510;28;20176;-77
2022/08/23 07:05:39;;;;;;;13.40;12.70;;;25.10;99.00;;;;;;4994620;28;20208;-75
2022/08/23 07:08:05;;;;;;;14.50;13.75;;;25.30;97.40;;;;;;4992793;28;20192;-76
2022/08/23 07:10:32;;;;;;;17.20;16.25;;;25.20;97.60;;;;;;4995147;28;20181;-74
2022/08/23 07:12:58;;;;;;;20.00;18.73;;;25.30;97.20;;;;;;4995806;28;20185;-76
2022/08/23 07:15:24;;;;;;;30.60;29.00;;;25.60;96.60;;;;;;4994986;28;20283;-75
2022/08/23 07:17:50;;;;;;;32.67;31.05;;;25.80;95.50;;;;;;5000073;28;20724;-75
2022/08/23 07:20:16;;;;;;;37.15;35.33;;;25.80;95.20;;;;;;5028025;28;20211;-74
2022/08/23 07:22:43;;;;;;;30.80;29.20;;;25.60;94.90;;;;;;5030280;28;20210;-73
2022/08/23 07:25:09;;;;;;;36.30;34.30;;;25.50;95.40;;;;;;5029428;28;20204;-74
2022/08/23 07:27:35;;;;;;;35.85;34.08;;;25.80;94.70;;;;;;5028057;28;20192;-73
2022/08/23 07:30:01;;;;;;;40.35;38.33;;;26.10;94.30;;;;;;5014273;28;20182;-73
2022/08/23 07:32:27;;;;;;;39.55;37.33;;;26.30;94.30;;;;;;5008848;28;20177;-73
2022/08/23 07:34:53;;;;;;;26.40;25.05;;;26.50;93.60;;;;;;4993107;28;20220;-75
2022/08/23 07:37:19;;;;;;;17.27;16.38;;;26.60;92.90;;;;;;4993488;28;20780;-73
2022/08/23 07:39:45;;;;;;;8.93;8.27;;;26.80;92.20;;;;;;4993015;28;20231;-74
2022/08/23 07:42:11;;;;;;;5.03;4.82;;;27.10;91.40;;;;;;4993977;28;20569;-73
2022/08/23 07:44:37;;;;;;;4.32;4.03;;;27.30;90.10;;;;;;4992773;28;20271;-75
2022/08/23 07:47:03;;;;;;;6.13;5.38;;;27.00;90.30;;;;;;5003617;28;20238;-73
2022/08/23 07:49:29;;;;;;;5.25;4.60;;;27.10;91.10;;;;;;5013819;28;20187;-75
2022/08/23 07:51:57;;;;;;;5.70;5.22;;;27.50;90.00;;;;;;5013636;28;20183;-73
2022/08/23 07:54:24;;;;;;;5.28;4.82;;;27.40;88.10;;;;;;5013202;28;20250;-74
2022/08/23 07:56:50;;;;;;;4.78;4.38;;;26.80;88.50;;;;;;5012591;28;20212;-74
2022/08/23 07:59:16;;;;;;;5.00;4.65;;;27.10;89.00;;;;;;5013417;28;20585;-77
2022/08/23 08:01:43;;;;;;;5.05;4.70;;;27.30;86.40;;;;;;4999798;28;20279;-76
2022/08/23 08:04:09;;;;;;;4.95;4.63;;;27.30;85.50;;;;;;5010082;28;20210;-75
2022/08/23 08:06:45;;;;;;;5.30;4.78;;;27.20;84.10;;;;;;5010396;28;20712;-76
2022/08/23 08:09:12;;;;;;;5.60;5.10;;;26.90;87.00;;;;;;5013309;28;20220;-75
2022/08/23 08:11:41;;;;;;;5.85;4.85;;;27.00;87.20;;;;;;5013435;28;20180;-76
2022/08/23 08:14:08;;;;;;;4.80;4.45;;;27.50;84.30;;;;;;5012839;28;20206;-75
2022/08/23 08:16:41;;;;;;;5.97;5.65;;;28.00;83.60;;;;;;4994794;28;20589;-76
2022/08/23 08:19:13;;;;;;;6.55;6.13;;;28.30;82.60;;;;;;4993250;28;20256;-76
2022/08/23 08:21:41;;;;;;;7.22;6.70;;;28.40;82.10;;;;;;4993730;28;20191;-77
2022/08/23 08:24:10;;;;;;;6.18;5.78;;;28.70;78.30;;;;;;4993542;28;20773;-77
2022/08/23 08:26:36;;;;;;;7.78;6.50;;;28.80;78.60;;;;;;4993586;28;20192;-76
2022/08/23 08:29:03;;;;;;;18.60;9.93;;;29.20;77.20;;;;;;4995572;28;20183;-76
2022/08/23 08:31:29;;;;;;;11.18;10.38;;;29.30;72.60;;;;;;5013457;28;20238;-76
2022/08/23 08:33:55;;;;;;;14.48;13.63;;;28.90;73.40;;;;;;5012785;28;20243;-76
2022/08/23 08:36:32;;;;;;;9.20;8.50;;;28.90;74.00;;;;;;5012852;28;20580;-77
2022/08/23 08:38:59;;;;;;;9.27;8.73;;;29.00;74.10;;;;;;5013685;28;20187;-76
2022/08/23 08:41:50;;;;;;;11.18;10.43;;;29.20;73.50;;;;;;5015547;28;20184;-77
2022/08/23 08:44:41;;;;;;;7.85;7.45;;;29.50;71.00;;;;;;5005588;28;20235;-76
2022/08/23 08:47:16;;;;;;;9.82;9.10;;;28.80;72.60;;;;;;4992709;28;20184;-77
2022/08/23 08:49:55;;;;;;;8.52;8.02;;;29.00;71.90;;;;;;4993023;28;20555;-76
2022/08/23 08:52:25;;;;;;;10.85;9.95;;;29.40;72.10;;;;;;4992957;28;20200;-77
2022/08/23 08:55:01;;;;;;;14.70;13.95;;;30.00;71.60;;;;;;4992885;28;20267;-76
2022/08/23 08:57:35;;;;;;;13.75;13.05;;;30.30;70.10;;;;;;4993313;28;20672;-76
2022/08/23 09:00:11;;;;;;;21.55;19.67;;;30.50;69.50;;;;;;4992892;28;20189;-76
2022/08/23 09:02:37;;;;;;;13.45;12.70;;;30.90;67.40;;;;;;4992747;28;20188;-76
2022/08/23 09:05:11;;;;;;;13.65;12.88;;;30.20;63.90;;;;;;4992407;28;20208;-76
2022/08/23 09:07:43;;;;;;;14.63;13.93;;;30.00;63.50;;;;;;4991749;28;20185;-76
2022/08/23 09:10:17;;;;;;;16.38;15.48;;;30.20;61.80;;;;;;4992795;28;20271;-76
2022/08/23 09:12:48;;;;;;;22.15;21.05;;;30.70;63.30;;;;;;5000986;28;20180;-76
2022/08/23 09:15:31;;;;;;;10.85;10.15;;;30.70;59.10;;;;;;5027526;28;20207;-76
2022/08/23 09:18:12;;;;;;;15.90;15.13;;;30.70;61.50;;;;;;5011388;28;20565;-75
2022/08/23 09:20:40;;;;;;;22.05;20.65;;;31.00;59.00;;;;;;5011343;28;20183;-76
2022/08/23 09:23:12;;;;;;;26.35;24.95;;;31.30;58.60;;;;;;5011770;28;20183;-76
2022/08/23 09:25:38;;;;;;;40.20;38.13;;;31.40;58.90;;;;;;5011824;28;20576;-76
2022/08/23 09:28:04;;;;;;;185.30;176.32;;;31.50;57.30;;;;;;5010455;28;20229;-76
2022/08/23 09:30:47;;;;;;;177.85;169.20;;;31.60;52.70;;;;;;5001992;28;20179;-76
2022/08/23 09:33:19;;;;;;;210.60;200.15;;;31.50;53.60;;;;;;5014377;28;20183;-84
2022/08/23 09:36:16;;;;;;;243.68;231.73;;;31.70;51.80;;;;;;5038102;23;20227;-82
2022/08/23 09:39:07;;;;;;;236.18;224.75;;;31.80;51.90;;;;;;5018170;28;20199;-82
2022/08/23 09:41:37;;;;;;;242.13;230.23;;;32.00;52.90;;;;;;5021986;28;20175;-81
2022/08/23 09:44:08;;;;;;;250.27;237.88;;;32.20;51.60;;;;;;5020151;28;20179;-81
2022/08/23 09:46:38;;;;;;;247.18;234.95;;;32.50;51.90;;;;;;5018324;28;20223;-81
2022/08/23 09:49:26;;;;;;;147.07;139.93;;;33.00;51.90;;;;;;5016674;28;20180;-82
2022/08/23 09:51:56;;;;;;;160.95;153.00;;;32.80;49.00;;;;;;5019150;28;20210;-81
2022/08/23 09:54:29;;;;;;;175.88;167.25;;;32.30;50.20;;;;;;5017718;28;20203;-80
2022/08/23 09:56:59;;;;;;;221.07;209.95;;;31.80;50.50;;;;;;5014877;28;20234;-83
2022/08/23 09:59:25;;;;;;;231.30;219.70;;;31.70;51.10;;;;;;5012079;28;20198;-83
2022/08/23 10:01:57;;;;;;;231.90;220.40;;;31.80;50.00;;;;;;4996607;28;20172;-83
2022/08/23 10:04:40;;;;;;;254.50;241.90;;;31.80;49.70;;;;;;4996270;28;20627;-83
2022/08/23 10:07:25;;;;;;;211.63;201.20;;;31.70;50.10;;;;;;4996267;28;20199;-79
2022/08/23 10:09:51;;;;;;;152.15;144.65;;;32.50;49.10;;;;;;4996346;28;20204;-80
2022/08/23 10:12:17;;;;;;;171.73;163.43;;;33.10;47.80;;;;;;5012748;28;20214;-79
2022/08/23 10:14:43;;;;;;;148.45;141.18;;;33.70;48.90;;;;;;5019954;28;20298;-82
2022/08/23 10:17:24;;;;;;;109.97;104.60;;;34.10;47.70;;;;;;5023608;28;20188;-80
2022/08/23 10:20:24;;;;;;;126.65;120.35;;;34.50;46.90;;;;;;5030541;28;20202;-83
2022/08/23 10:23:08;;;;;;;175.15;166.75;;;34.60;45.30;;;;;;5024780;28;20194;-83
2022/08/23 10:26:00;;;;;;;160.77;152.70;;;34.40;45.30;;;;;;5016162;28;20691;-80
2022/08/23 10:31:56;;;;;;;177.73;168.18;;;34.50;46.80;;;;;;5001296;28;20184;-80
2022/08/23 10:34:34;;;;;;;199.00;189.30;;;34.40;45.50;;;;;;5006879;28;20191;-81
2022/08/23 10:37:26;;;;;;;216.02;205.43;;;34.00;46.80;;;;;;4998966;28;20201;-81
2022/08/23 10:40:24;;;;;;;208.57;198.40;;;34.00;46.80;;;;;;4999962;28;20188;-81
2022/08/23 10:42:55;;;;;;;184.63;175.68;;;34.00;46.20;;;;;;5017532;28;20200;-82
2022/08/23 10:45:30;;;;;;;194.85;185.40;;;34.30;45.20;;;;;;5015202;28;20302;-81
2022/08/23 10:48:02;;;;;;;189.68;180.38;;;34.60;45.40;;;;;;5014988;28;20183;-81
2022/08/23 10:50:46;;;;;;;196.10;186.73;;;34.80;44.30;;;;;;5018209;28;20183;-81
2022/08/23 10:53:15;;;;;;;175.85;167.18;;;35.10;45.30;;;;;;5018453;28;20184;-80
2022/08/23 10:56:01;;;;;;;157.32;149.75;;;35.50;44.00;;;;;;5001778;28;20736;-79
2022/08/23 10:58:31;;;;;;;158.20;150.40;;;35.10;44.10;;;;;;5005987;28;20255;-79
2022/08/23 11:00:59;;;;;;;146.55;139.35;;;35.20;44.70;;;;;;5013709;28;20181;-78
2022/08/23 11:03:30;;;;;;;126.57;120.60;;;35.20;43.80;;;;;;4997033;28;20227;-81
2022/08/23 11:06:23;;;;;;;118.40;112.63;;;35.60;43.90;;;;;;5003551;28;20228;-78
2022/08/23 11:09:02;;;;;;;144.88;138.02;;;35.10;44.00;;;;;;5017165;28;20168;-78
2022/08/23 11:11:46;;;;;;;139.95;133.15;;;34.60;44.30;;;;;;5023231;28;20194;-80
2022/08/23 11:14:26;;;;;;;111.70;106.35;;;34.50;44.70;;;;;;5001401;28;20191;-79
2022/08/23 11:17:05;;;;;;;109.05;103.82;;;35.20;43.70;;;;;;4992594;28;20196;-77
2022/08/23 11:19:51;;;;;;;119.70;114.03;;;35.40;43.70;;;;;;4999685;28;20192;-80
2022/08/23 11:22:25;;;;;;;129.10;122.88;;;34.90;44.10;;;;;;4995544;28;20180;-78
2022/08/23 11:25:15;;;;;;;174.95;166.48;;;34.60;44.50;;;;;;5013966;28;20204;-81
2022/08/23 11:27:43;;;;;;;171.45;163.20;;;33.40;46.00;;;;;;4983730;28;20196;-79
2022/08/23 11:30:30;;;;;;;192.95;183.40;;;33.30;46.30;;;;;;5015848;28;20742;-78
2022/08/23 11:33:07;;;;;;;202.48;192.48;;;34.00;45.60;;;;;;5023808;28;20586;-79
2022/08/23 11:35:36;;;;;;;226.95;215.88;;;34.10;44.60;;;;;;5023587;28;20223;-82
2022/08/23 11:38:04;;;;;;;220.23;209.13;;;33.90;45.50;;;;;;5007852;28;20700;-83
2022/08/23 11:41:02;;;;;;;189.82;180.30;;;34.50;45.30;;;;;;4998515;28;20701;-82
2022/08/23 11:43:32;;;;;;;97.40;92.75;;;35.70;43.60;;;;;;4982744;28;20258;-83
2022/08/23 11:46:24;;;;;;;76.07;72.47;;;36.30;42.10;;;;;;4998578;28;20211;-82
2022/08/23 11:49:15;;;;;;;68.28;64.93;;;36.60;41.60;;;;;;4990198;28;20226;-81
2022/08/23 11:52:23;;;;;;;72.78;68.97;;;35.90;42.50;;;;;;5011267;28;20187;-80
2022/08/23 11:55:11;;;;;;;35.25;33.50;;;35.70;42.30;;;;;;5016406;28;20224;-80
2022/08/23 11:58:19;;;;;;;31.08;29.55;;;35.80;41.50;;;;;;5020155;28;20215;-80
2022/08/23 12:00:54;;;;;;;31.08;29.52;;;36.70;41.30;;;;;;5019101;28;20198;-78
2022/08/23 12:03:23;;;;;;;42.30;40.03;;;36.00;41.70;;;;;;5016314;28;20740;-78
2022/08/23 12:05:52;;;;;;;54.03;51.40;;;36.00;42.00;;;;;;5003278;28;20589;-78
2022/08/23 12:08:46;;;;;;;46.47;44.00;;;35.90;41.80;;;;;;4995039;28;20290;-79
2022/08/23 12:11:14;;;;;;;48.47;45.90;;;36.20;41.90;;;;;;4995886;28;20258;-78
2022/08/23 12:14:00;;;;;;;59.78;56.63;;;36.40;41.30;;;;;;4996849;28;20275;-79
2022/08/23 12:16:31;;;;;;;38.60;36.67;;;36.10;41.50;;;;;;4997834;28;20220;-78
2022/08/23 12:19:01;;;;;;;16.52;15.70;;;36.50;41.30;;;;;;4998951;28;20266;-80
2022/08/23 12:21:48;;;;;;;20.38;18.90;;;36.50;40.70;;;;;;4976275;28;20185;-80
2022/08/23 12:24:16;;;;;;;5.10;4.70;;;36.90;40.30;;;;;;4983796;28;20188;-79
2022/08/23 12:26:46;;;;;;;6.00;5.63;;;38.40;40.10;;;;;;4976394;28;20289;-80
2022/08/23 12:29:32;;;;;;;14.93;14.05;;;39.10;38.60;;;;;;4976853;28;20232;-79
2022/08/23 12:32:22;;;;;;;6.68;6.18;;;39.30;38.30;;;;;;4956426;28;20201;-79
2022/08/23 12:35:13;;;;;;;6.85;6.35;;;39.30;37.20;;;;;;5007517;28;20270;-78
2022/08/23 12:37:57;;;;;;;4.88;4.47;;;38.60;37.30;;;;;;5013153;28;20183;-81
2022/08/23 12:40:39;;;;;;;5.65;5.15;;;38.20;37.80;;;;;;5034565;28;20199;-78
2022/08/23 12:43:09;;;;;;;4.05;3.83;;;38.00;37.70;;;;;;5029520;28;20199;-77
2022/08/23 12:45:41;;;;;;;4.68;4.25;;;38.10;38.10;;;;;;5020211;28;20242;-77
2022/08/23 12:48:10;;;;;;;5.55;5.13;;;38.80;37.20;;;;;;5015072;28;20687;-78
2022/08/23 12:50:42;;;;;;;9.27;8.50;;;39.30;36.40;;;;;;5014642;28;20573;-79
2022/08/23 12:53:31;;;;;;;8.57;8.07;;;38.70;38.00;;;;;;5014717;28;20206;-80
2022/08/23 12:56:21;;;;;;;5.97;5.57;;;39.90;36.30;;;;;;5014271;28;20589;-78
2022/08/23 12:58:51;;;;;;;8.70;8.25;;;39.70;35.70;;;;;;4973661;28;20226;-78
2022/08/23 13:01:38;;;;;;;8.93;8.45;;;39.60;35.60;;;;;;4974760;28;20205;-77